createdAt,value
2018-02-27T00:00:44.102Z,925.75
2018-02-27T00:02:15.918Z,925.77
2018-02-27T00:03:47.735Z,925.78
2018-02-27T00:05:19.551Z,925.82
2018-02-27T00:06:51.366Z,925.85
2018-02-27T00:08:23.183Z,925.81
2018-02-27T00:09:54.999Z,925.79
2018-02-27T00:11:26.814Z,925.83
2018-02-27T00:12:58.731Z,925.81
2018-02-27T00:14:30.448Z,925.83
2018-02-27T00:16:02.264Z,925.86
2018-02-27T00:17:34.080Z,925.85
2018-02-27T00:19:05.996Z,925.90
2018-02-27T00:20:37.712Z,925.89
2018-02-27T00:22:09.529Z,925.85
2018-02-27T00:23:41.344Z,925.83
2018-02-27T00:25:13.160Z,925.83
2018-02-27T00:26:44.977Z,925.87
2018-02-27T00:28:16.793Z,925.90
2018-02-27T00:29:48.613Z,925.95
2018-02-27T00:31:20.526Z,925.97
2018-02-27T00:32:52.243Z,926.01
2018-02-27T00:34:24.058Z,926.01
2018-02-27T00:35:55.875Z,925.97
2018-02-27T00:37:27.691Z,925.94
2018-02-27T00:38:59.507Z,925.92
2018-02-27T00:40:31.324Z,925.92
2018-02-27T00:42:03.140Z,925.94
2018-02-27T00:43:34.957Z,925.97
2018-02-27T00:45:06.774Z,925.98
2018-02-27T00:46:38.592Z,925.94
2018-02-27T00:48:10.406Z,925.99
2018-02-27T00:49:42.323Z,925.96
2018-02-27T00:51:14.040Z,925.91
2018-02-27T00:52:45.857Z,925.91
2018-02-27T00:54:17.672Z,925.93
2018-02-27T00:55:49.487Z,925.94
2018-02-27T00:57:21.305Z,925.98
2018-02-27T00:58:53.121Z,925.96
2018-02-27T01:00:24.941Z,925.98
2018-02-27T01:01:56.755Z,925.94
2018-02-27T01:03:28.575Z,925.98
2018-02-27T01:05:00.387Z,925.99
2018-02-27T01:06:32.205Z,925.97
2018-02-27T01:08:04.122Z,925.99
2018-02-27T01:09:35.838Z,925.98
2018-02-27T01:11:07.655Z,925.94
2018-02-27T01:12:39.470Z,925.95
2018-02-27T01:14:11.288Z,925.99
2018-02-27T01:15:43.104Z,925.98
2018-02-27T01:17:14.920Z,925.97
2018-02-27T01:18:46.737Z,925.98
2018-02-27T01:20:18.703Z,926.01
2018-02-27T01:21:50.370Z,926.00
2018-02-27T01:23:22.185Z,925.97
2018-02-27T01:24:54.003Z,925.94
2018-02-27T01:26:26.068Z,925.98
2018-02-27T01:27:57.633Z,925.99
2018-02-27T01:29:29.449Z,925.99
2018-02-27T01:31:01.265Z,925.95
2018-02-27T01:32:33.080Z,925.96
2018-02-27T01:34:04.896Z,925.97
2018-02-27T01:35:36.712Z,925.94
2018-02-27T01:37:08.527Z,925.96
2018-02-27T01:38:40.343Z,925.95
2018-02-27T01:40:12.158Z,925.94
2018-02-27T01:41:43.974Z,925.96
2018-02-27T01:43:15.789Z,925.97
2018-02-27T01:44:47.860Z,926.01
2018-02-27T01:46:19.421Z,926.02
2018-02-27T01:47:51.236Z,926.02
2018-02-27T01:49:23.051Z,926.00
2018-02-27T01:50:54.867Z,926.02
2018-02-27T01:52:26.683Z,925.98
2018-02-27T01:53:58.498Z,925.93
2018-02-27T01:55:30.316Z,925.90
2018-02-27T01:57:02.130Z,925.91
2018-02-27T01:58:33.946Z,925.91
2018-02-27T02:00:05.763Z,925.88
2018-02-27T02:01:37.577Z,925.82
2018-02-27T02:03:09.493Z,925.81
2018-02-27T02:04:41.209Z,925.79
2018-02-27T02:06:13.025Z,925.73
2018-02-27T02:07:44.840Z,925.80
2018-02-27T02:09:16.656Z,925.81
2018-02-27T02:10:48.480Z,925.82
2018-02-27T02:12:20.286Z,925.81
2018-02-27T02:13:52.101Z,925.84
2018-02-27T02:15:23.917Z,925.88
2018-02-27T02:16:55.731Z,925.86
2018-02-27T02:18:27.547Z,925.83
2018-02-27T02:19:59.361Z,925.83
2018-02-27T02:21:31.438Z,925.83
2018-02-27T02:23:02.992Z,925.78
2018-02-27T02:24:34.806Z,925.76
2018-02-27T02:26:06.638Z,925.74
2018-02-27T02:27:38.435Z,925.70
2018-02-27T02:29:10.255Z,925.66
2018-02-27T02:30:42.067Z,925.67
2018-02-27T02:32:13.880Z,925.64
2018-02-27T02:33:45.695Z,925.64
2018-02-27T02:35:17.510Z,925.63
2018-02-27T02:36:49.324Z,925.59
2018-02-27T02:38:21.141Z,925.63
2018-02-27T02:39:53.054Z,925.58
2018-02-27T02:41:24.768Z,925.60
2018-02-27T02:42:56.601Z,925.58
2018-02-27T02:44:28.398Z,925.56
2018-02-27T02:46:00.220Z,925.55
2018-02-27T02:47:32.030Z,925.52
2018-02-27T02:49:03.842Z,925.48
2018-02-27T02:50:35.657Z,925.51
2018-02-27T02:52:07.472Z,925.51
2018-02-27T02:53:39.286Z,925.52
2018-02-27T02:55:11.104Z,925.46
2018-02-27T02:56:42.939Z,925.41
2018-02-27T02:58:14.981Z,925.38
2018-02-27T02:59:46.545Z,925.33
2018-02-27T03:01:18.380Z,925.36
2018-02-27T03:02:50.174Z,925.29
2018-02-27T03:04:22.138Z,925.32
2018-02-27T03:05:53.803Z,925.28
2018-02-27T03:07:25.618Z,925.30
2018-02-27T03:08:57.432Z,925.31
2018-02-27T03:10:29.347Z,925.30
2018-02-27T03:12:01.064Z,925.31
2018-02-27T03:13:32.876Z,925.30
2018-02-27T03:15:04.694Z,925.24
2018-02-27T03:16:36.606Z,925.24
2018-02-27T03:18:08.321Z,925.25
2018-02-27T03:19:40.135Z,925.19
2018-02-27T03:21:11.949Z,925.21
2018-02-27T03:22:43.764Z,925.16
2018-02-27T03:24:15.613Z,925.18
2018-02-27T03:25:47.392Z,925.15
2018-02-27T03:27:19.207Z,925.15
2018-02-27T03:28:51.172Z,925.16
2018-02-27T03:30:22.839Z,925.14
2018-02-27T03:31:54.669Z,925.12
2018-02-27T03:33:26.466Z,925.08
2018-02-27T03:34:58.683Z,925.05
2018-02-27T03:36:30.097Z,925.05
2018-02-27T03:38:01.912Z,924.99
2018-02-27T03:39:33.727Z,924.99
2018-02-27T03:41:05.542Z,924.98
2018-02-27T03:42:37.357Z,924.99
2018-02-27T03:44:09.173Z,924.94
2018-02-27T03:45:40.988Z,924.92
2018-02-27T03:47:12.804Z,924.89
2018-02-27T03:48:44.620Z,924.89
2018-02-27T03:50:16.433Z,924.91
2018-02-27T03:51:48.249Z,924.88
2018-02-27T03:53:20.264Z,924.84
2018-02-27T03:54:51.879Z,924.85
2018-02-27T03:56:23.695Z,924.85
2018-02-27T03:57:55.509Z,924.81
2018-02-27T03:59:27.325Z,924.84
2018-02-27T04:00:59.148Z,924.85
2018-02-27T04:02:30.955Z,924.82
2018-02-27T04:04:02.772Z,924.81
2018-02-27T04:05:34.589Z,924.75
2018-02-27T04:07:06.419Z,924.72
2018-02-27T04:08:38.217Z,924.67
2018-02-27T04:10:10.033Z,924.67
2018-02-27T04:11:41.948Z,924.61
2018-02-27T04:13:13.663Z,924.60
2018-02-27T04:14:45.479Z,924.63
2018-02-27T04:16:17.294Z,924.58
2018-02-27T04:17:49.110Z,924.61
2018-02-27T04:19:20.925Z,924.57
2018-02-27T04:20:52.741Z,924.58
2018-02-27T04:22:24.556Z,924.59
2018-02-27T04:23:56.373Z,924.56
2018-02-27T04:25:28.188Z,924.56
2018-02-27T04:27:00.003Z,924.53
2018-02-27T04:28:31.818Z,924.50
2018-02-27T04:30:03.885Z,924.48
2018-02-27T04:31:35.448Z,924.46
2018-02-27T04:33:07.264Z,924.43
2018-02-27T04:34:39.075Z,924.44
2018-02-27T04:36:10.890Z,924.42
2018-02-27T04:37:42.702Z,924.44
2018-02-27T04:39:14.518Z,924.47
2018-02-27T04:40:46.333Z,924.43
2018-02-27T04:42:18.156Z,924.43
2018-02-27T04:43:49.975Z,924.44
2018-02-27T04:45:21.788Z,924.45
2018-02-27T04:46:53.606Z,924.46
2018-02-27T04:48:25.516Z,924.48
2018-02-27T04:49:57.231Z,924.52
2018-02-27T04:51:29.046Z,924.48
2018-02-27T04:53:00.861Z,924.45
2018-02-27T04:54:32.827Z,924.43
2018-02-27T04:56:04.493Z,924.44
2018-02-27T04:57:36.306Z,924.37
2018-02-27T04:59:08.123Z,924.37
2018-02-27T05:00:40.088Z,924.38
2018-02-27T05:02:11.753Z,924.44
2018-02-27T05:03:43.567Z,924.46
2018-02-27T05:05:15.382Z,924.49
2018-02-27T05:06:47.398Z,924.47
2018-02-27T05:08:19.013Z,924.47
2018-02-27T05:09:50.830Z,924.43
2018-02-27T05:11:22.646Z,924.45
2018-02-27T05:12:54.458Z,924.42
2018-02-27T05:14:26.274Z,924.44
2018-02-27T05:15:58.089Z,924.41
2018-02-27T05:17:29.905Z,924.42
2018-02-27T05:19:01.719Z,924.38
2018-02-27T05:20:33.534Z,924.36
2018-02-27T05:22:05.346Z,924.36
2018-02-27T05:23:37.161Z,924.36
2018-02-27T05:25:09.077Z,924.34
2018-02-27T05:26:40.793Z,924.36
2018-02-27T05:28:12.608Z,924.34
2018-02-27T05:29:44.435Z,924.30
2018-02-27T05:31:16.389Z,924.23
2018-02-27T05:32:48.058Z,924.22
2018-02-27T05:34:19.913Z,924.20
2018-02-27T05:35:51.686Z,924.15
2018-02-27T05:37:23.501Z,924.11
2018-02-27T05:38:55.315Z,924.15
2018-02-27T05:40:27.132Z,924.10
2018-02-27T05:41:58.947Z,924.10
2018-02-27T05:43:30.862Z,924.10
2018-02-27T05:45:02.580Z,924.11
2018-02-27T05:46:34.393Z,924.10
2018-02-27T05:48:06.209Z,924.04
2018-02-27T05:49:38.024Z,924.06
2018-02-27T05:51:09.840Z,924.02
2018-02-27T05:52:41.655Z,923.97
2018-02-27T05:54:13.470Z,923.99
2018-02-27T05:55:45.385Z,923.99
2018-02-27T05:57:17.100Z,924.03
2018-02-27T05:58:48.915Z,924.02
2018-02-27T06:00:20.730Z,923.98
2018-02-27T06:01:52.796Z,923.94
2018-02-27T06:03:24.360Z,923.94
2018-02-27T06:04:56.193Z,923.98
2018-02-27T06:06:27.990Z,924.01
2018-02-27T06:07:59.805Z,923.98
2018-02-27T06:09:31.619Z,923.98
2018-02-27T06:11:03.434Z,923.97
2018-02-27T06:12:35.253Z,923.99
2018-02-27T06:14:07.070Z,923.97
2018-02-27T06:15:38.878Z,923.98
2018-02-27T06:17:10.693Z,923.98
2018-02-27T06:18:42.508Z,923.99
2018-02-27T06:20:14.422Z,924.02
2018-02-27T06:21:46.137Z,923.99
2018-02-27T06:23:17.952Z,923.95
2018-02-27T06:24:49.767Z,923.97
2018-02-27T06:26:21.683Z,923.91
2018-02-27T06:27:53.402Z,923.92
2018-02-27T06:29:25.212Z,924.00
2018-02-27T06:30:57.027Z,923.97
2018-02-27T06:32:28.842Z,923.98
2018-02-27T06:34:00.656Z,924.00
2018-02-27T06:35:32.471Z,923.97
2018-02-27T06:37:04.286Z,923.92
2018-02-27T06:38:36.201Z,923.93
2018-02-27T06:40:07.917Z,923.93
2018-02-27T06:41:39.732Z,923.91
2018-02-27T06:43:11.547Z,923.95
2018-02-27T06:44:43.365Z,923.95
2018-02-27T06:46:15.177Z,924.01
2018-02-27T06:47:46.992Z,923.98
2018-02-27T06:49:18.807Z,923.97
2018-02-27T06:50:50.622Z,923.96
2018-02-27T06:52:22.437Z,923.93
2018-02-27T06:53:54.253Z,923.95
2018-02-27T06:55:26.068Z,923.95
2018-02-27T06:56:58.084Z,923.93
2018-02-27T06:58:29.702Z,923.95
2018-02-27T07:00:01.514Z,923.95
2018-02-27T07:01:33.329Z,923.91
2018-02-27T07:03:05.294Z,923.96
2018-02-27T07:04:36.960Z,923.92
2018-02-27T07:06:08.774Z,923.89
2018-02-27T07:07:40.589Z,923.85
2018-02-27T07:09:12.405Z,923.83
2018-02-27T07:10:44.220Z,923.85
2018-02-27T07:12:16.035Z,923.80
2018-02-27T07:13:47.849Z,923.78
2018-02-27T07:15:19.764Z,923.75
2018-02-27T07:16:51.483Z,923.75
2018-02-27T07:18:23.294Z,923.78
2018-02-27T07:19:55.109Z,923.79
2018-02-27T07:21:26.923Z,923.80
2018-02-27T07:22:58.737Z,923.82
2018-02-27T07:24:30.555Z,923.83
2018-02-27T07:26:02.368Z,923.84
2018-02-27T07:27:34.332Z,923.81
2018-02-27T07:29:05.995Z,923.85
2018-02-27T07:30:37.810Z,923.86
2018-02-27T07:32:09.625Z,923.84
2018-02-27T07:33:41.689Z,923.86
2018-02-27T07:35:13.259Z,923.84
2018-02-27T07:36:45.068Z,923.87
2018-02-27T07:38:16.883Z,923.88
2018-02-27T07:39:48.697Z,923.86
2018-02-27T07:41:20.511Z,923.87
2018-02-27T07:42:52.327Z,923.92
2018-02-27T07:44:24.141Z,923.89
2018-02-27T07:45:55.956Z,923.96
2018-02-27T07:47:27.771Z,923.92
2018-02-27T07:48:59.585Z,923.95
2018-02-27T07:50:31.400Z,923.92
2018-02-27T07:52:03.316Z,923.91
2018-02-27T07:53:35.031Z,923.88
2018-02-27T07:55:06.844Z,923.94
2018-02-27T07:56:38.658Z,923.93
2018-02-27T07:58:10.492Z,923.97
2018-02-27T07:59:42.289Z,923.98
2018-02-27T08:01:14.103Z,923.97
2018-02-27T08:02:45.918Z,924.04
2018-02-27T08:04:17.734Z,924.02
2018-02-27T08:05:49.548Z,924.04
2018-02-27T08:07:21.364Z,924.07
2018-02-27T08:08:53.179Z,924.06
2018-02-27T08:10:25.098Z,924.11
2018-02-27T08:11:56.808Z,924.11
2018-02-27T08:13:28.624Z,924.13
2018-02-27T08:15:00.438Z,924.11
2018-02-27T08:16:32.256Z,924.14
2018-02-27T08:18:04.070Z,924.15
2018-02-27T08:19:35.885Z,924.17
2018-02-27T08:21:07.700Z,924.15
2018-02-27T08:22:39.516Z,924.18
2018-02-27T08:24:11.331Z,924.20
2018-02-27T08:25:43.147Z,924.22
2018-02-27T08:27:14.962Z,924.21
2018-02-27T08:28:47.029Z,924.18
2018-02-27T08:30:18.609Z,924.23
2018-02-27T08:31:50.406Z,924.24
2018-02-27T08:33:22.221Z,924.25
2018-02-27T08:34:54.036Z,924.29
2018-02-27T08:36:25.851Z,924.31
2018-02-27T08:37:57.664Z,924.33
2018-02-27T08:39:29.480Z,924.29
2018-02-27T08:41:01.294Z,924.29
2018-02-27T08:42:33.107Z,924.34
2018-02-27T08:44:04.923Z,924.35
2018-02-27T08:45:36.740Z,924.32
2018-02-27T08:47:08.653Z,924.38
2018-02-27T08:48:40.366Z,924.35
2018-02-27T08:50:12.181Z,924.37
2018-02-27T08:51:43.997Z,924.38
2018-02-27T08:53:15.911Z,924.42
2018-02-27T08:54:47.625Z,924.44
2018-02-27T08:56:19.449Z,924.40
2018-02-27T08:57:51.256Z,924.49
2018-02-27T08:59:23.070Z,924.44
2018-02-27T09:00:54.884Z,924.44
2018-02-27T09:02:26.699Z,924.50
2018-02-27T09:03:58.514Z,924.51
2018-02-27T09:05:30.580Z,924.48
2018-02-27T09:07:02.145Z,924.56
2018-02-27T09:08:33.958Z,924.54
2018-02-27T09:10:05.774Z,924.55
2018-02-27T09:11:37.590Z,924.56
2018-02-27T09:13:09.405Z,924.59
2018-02-27T09:14:41.238Z,924.62
2018-02-27T09:16:13.034Z,924.66
2018-02-27T09:17:44.849Z,924.72
2018-02-27T09:19:16.697Z,924.69
2018-02-27T09:20:48.479Z,924.73
2018-02-27T09:22:20.296Z,924.77
2018-02-27T09:23:53.012Z,924.81
2018-02-27T09:25:23.926Z,924.82
2018-02-27T09:26:55.741Z,924.88
2018-02-27T09:28:27.557Z,924.91
2018-02-27T09:29:59.371Z,924.96
2018-02-27T09:31:31.186Z,924.99
2018-02-27T09:33:03.002Z,925.01
2018-02-27T09:34:34.820Z,925.03
2018-02-27T09:36:06.783Z,925.02
2018-02-27T09:37:38.448Z,925.05
2018-02-27T09:39:10.264Z,925.04
2018-02-27T09:40:42.118Z,925.01
2018-02-27T09:42:13.996Z,925.04
2018-02-27T09:43:45.712Z,925.04
2018-02-27T09:45:17.528Z,925.04
2018-02-27T09:46:49.870Z,925.10
2018-02-27T09:48:21.162Z,925.15
2018-02-27T09:49:53.040Z,925.11
2018-02-27T09:51:24.792Z,925.19
2018-02-27T09:52:56.609Z,925.22
2018-02-27T09:54:28.528Z,925.23
2018-02-27T09:56:00.242Z,925.23
2018-02-27T09:57:32.062Z,925.21
2018-02-27T09:59:03.874Z,925.23
2018-02-27T10:00:36.056Z,925.22
2018-02-27T10:02:08.368Z,925.20
2018-02-27T10:03:39.728Z,925.22
2018-02-27T10:05:11.139Z,925.23
2018-02-27T10:06:43.738Z,925.21
2018-02-27T10:08:14.772Z,925.23
2018-02-27T10:09:46.590Z,925.30
2018-02-27T10:11:18.446Z,925.28
2018-02-27T10:12:50.273Z,925.35
2018-02-27T10:14:22.039Z,925.42
2018-02-27T10:15:53.857Z,925.48
2018-02-27T10:17:25.674Z,925.46
2018-02-27T10:18:57.692Z,925.46
2018-02-27T10:20:29.310Z,925.46
2018-02-27T10:22:01.126Z,925.46
2018-02-27T10:23:33.412Z,925.50
2018-02-27T10:25:05.642Z,925.51
2018-02-27T10:26:36.581Z,925.54
2018-02-27T10:28:08.401Z,925.56
2018-02-27T10:29:40.236Z,925.59
2018-02-27T10:31:12.043Z,925.60
2018-02-27T10:32:43.859Z,925.67
2018-02-27T10:34:15.716Z,925.67
2018-02-27T10:35:47.501Z,925.66
2018-02-27T10:37:19.570Z,925.68
2018-02-27T10:38:51.140Z,925.69
2018-02-27T10:40:23.283Z,925.68
2018-02-27T10:41:54.782Z,925.72
2018-02-27T10:43:26.601Z,925.72
2018-02-27T10:44:58.538Z,925.73
2018-02-27T10:46:30.245Z,925.78
2018-02-27T10:48:02.065Z,925.79
2018-02-27T10:49:34.094Z,925.82
2018-02-27T10:51:05.709Z,925.81
2018-02-27T10:52:37.533Z,925.85
2018-02-27T10:54:09.353Z,925.85
2018-02-27T10:55:41.374Z,925.82
2018-02-27T10:57:13.057Z,925.78
2018-02-27T10:58:44.827Z,925.86
2018-02-27T11:00:16.639Z,925.92
2018-02-27T11:01:48.535Z,925.88
2018-02-27T11:03:20.282Z,925.87
2018-02-27T11:04:52.106Z,925.83
2018-02-27T11:06:24.092Z,925.87
2018-02-27T11:07:55.749Z,925.79
2018-02-27T11:09:27.573Z,925.81
2018-02-27T11:10:59.759Z,925.79
2018-02-27T11:12:31.308Z,925.83
2018-02-27T11:14:03.158Z,925.84
2018-02-27T11:15:35.221Z,925.79
2018-02-27T11:17:06.676Z,925.79
2018-02-27T11:18:38.505Z,925.79
2018-02-27T11:20:10.323Z,925.81
2018-02-27T11:21:42.137Z,925.80
2018-02-27T11:23:13.964Z,925.85
2018-02-27T11:24:45.778Z,925.95
2018-02-27T11:26:17.600Z,925.99
2018-02-27T11:27:49.441Z,926.00
2018-02-27T11:29:21.442Z,926.01
2018-02-27T11:30:53.308Z,926.02
2018-02-27T11:32:24.977Z,926.06
2018-02-27T11:33:56.723Z,926.08
2018-02-27T11:35:28.516Z,926.10
2018-02-27T11:37:00.335Z,926.13
2018-02-27T11:38:32.356Z,926.08
2018-02-27T11:40:03.974Z,926.06
2018-02-27T11:41:35.793Z,926.11
2018-02-27T11:43:07.613Z,926.11
2018-02-27T11:44:39.432Z,926.11
2018-02-27T11:46:11.250Z,926.12
2018-02-27T11:47:43.559Z,926.15
2018-02-27T11:49:14.889Z,926.15
2018-02-27T11:50:46.808Z,926.11
2018-02-27T11:52:18.527Z,926.21
2018-02-27T11:53:50.345Z,926.28
2018-02-27T11:55:22.214Z,926.32
2018-02-27T11:56:53.984Z,926.37
2018-02-27T11:58:25.803Z,926.43
2018-02-27T11:59:57.624Z,926.47
2018-02-27T12:01:29.441Z,926.44
2018-02-27T12:03:01.263Z,926.58
2018-02-27T12:04:33.081Z,926.58
2018-02-27T12:06:04.904Z,926.73
2018-02-27T12:07:36.728Z,926.71
2018-02-27T12:09:08.643Z,926.90
2018-02-27T12:10:40.364Z,926.86
2018-02-27T12:12:12.186Z,926.86
2018-02-27T12:13:44.032Z,926.85
2018-02-27T12:15:16.073Z,926.60
2018-02-27T12:16:47.762Z,926.57
2018-02-27T12:18:19.829Z,926.57
2018-02-27T12:19:51.394Z,926.44
2018-02-27T12:21:23.445Z,926.40
2018-02-27T12:22:55.245Z,926.33
2018-02-27T12:24:26.867Z,926.39
2018-02-27T12:25:58.817Z,926.38
2018-02-27T12:27:30.643Z,926.39
2018-02-27T12:29:02.332Z,926.50
2018-02-27T12:30:34.417Z,926.61
2018-02-27T12:32:05.980Z,926.55
2018-02-27T12:33:37.719Z,926.58
2018-02-27T12:35:09.564Z,926.31
2018-02-27T12:36:41.540Z,926.30
2018-02-27T12:38:13.531Z,926.31
2018-02-27T12:39:45.014Z,926.29
2018-02-27T12:41:16.845Z,926.27
2018-02-27T12:42:48.756Z,926.30
2018-02-27T12:44:20.470Z,926.28
2018-02-27T12:45:52.458Z,926.33
2018-02-27T12:47:24.383Z,926.30
2018-02-27T12:48:55.990Z,926.34
2018-02-27T12:50:27.814Z,926.36
2018-02-27T12:51:59.561Z,926.42
2018-02-27T12:53:31.650Z,926.49
2018-02-27T12:55:03.716Z,926.50
2018-02-27T12:56:35.149Z,926.53
2018-02-27T12:58:07.053Z,926.58
2018-02-27T12:59:38.665Z,926.59
2018-02-27T13:01:10.761Z,926.63
2018-02-27T13:02:42.375Z,926.59
2018-02-27T13:04:14.214Z,926.47
2018-02-27T13:05:45.911Z,926.46
2018-02-27T13:07:17.735Z,926.46
2018-02-27T13:08:49.553Z,926.52
2018-02-27T13:10:21.372Z,926.64
2018-02-27T13:11:53.192Z,926.78
2018-02-27T13:13:25.017Z,926.83
2018-02-27T13:14:56.833Z,926.75
2018-02-27T13:16:28.652Z,926.76
2018-02-27T13:18:00.474Z,926.83
2018-02-27T13:19:32.294Z,926.74
2018-02-27T13:21:04.114Z,926.82
2018-02-27T13:22:36.035Z,926.72
2018-02-27T13:24:07.756Z,926.51
2018-02-27T13:25:39.577Z,926.51
2018-02-27T13:27:11.399Z,926.64
2018-02-27T13:28:43.372Z,926.61
2018-02-27T13:30:15.210Z,926.53
2018-02-27T13:31:46.862Z,926.56
2018-02-27T13:33:18.683Z,926.51
2018-02-27T13:34:50.505Z,926.61
2018-02-27T13:36:22.326Z,926.53
2018-02-27T13:37:54.148Z,926.55
2018-02-27T13:39:25.968Z,926.50
2018-02-27T13:40:57.896Z,926.41
2018-02-27T13:42:29.616Z,926.46
2018-02-27T13:44:01.454Z,926.51
2018-02-27T13:45:33.255Z,926.46
2018-02-27T13:47:05.075Z,926.49
2018-02-27T13:48:45.758Z,926.47
2018-02-27T13:50:08.717Z,926.52
2018-02-27T13:51:40.537Z,926.57
2018-02-27T13:53:12.358Z,926.50
2018-02-27T13:54:44.178Z,926.52
2018-02-27T13:56:16.011Z,926.56
2018-02-27T13:57:47.820Z,926.57
2018-02-27T13:59:19.890Z,926.58
2018-02-27T14:00:51.459Z,926.67
2018-02-27T14:02:23.279Z,926.68
2018-02-27T14:03:55.141Z,926.79
2018-02-27T14:05:26.970Z,926.83
2018-02-27T14:06:58.739Z,926.68
2018-02-27T14:08:30.690Z,926.74
2018-02-27T14:10:02.381Z,926.77
2018-02-27T14:11:34.201Z,926.83
2018-02-27T14:13:06.025Z,926.70
2018-02-27T14:14:37.844Z,926.69
2018-02-27T14:16:09.663Z,926.61
2018-02-27T14:17:41.636Z,926.54
2018-02-27T14:19:13.306Z,926.49
2018-02-27T14:20:45.127Z,926.50
2018-02-27T14:22:16.949Z,926.56
2018-02-27T14:23:48.770Z,926.69
2018-02-27T14:25:20.642Z,926.72
2018-02-27T14:26:52.412Z,926.96
2018-02-27T14:28:24.236Z,927.32
2018-02-27T14:29:56.058Z,927.17
2018-02-27T14:31:27.910Z,926.79
2018-02-27T14:32:59.907Z,926.77
2018-02-27T14:34:31.832Z,926.81
2018-02-27T14:36:03.454Z,926.75
2018-02-27T14:37:35.179Z,926.84
2018-02-27T14:39:07.005Z,926.78
2018-02-27T14:40:38.830Z,926.85
2018-02-27T14:42:10.655Z,926.61
2018-02-27T14:43:42.589Z,926.69
2018-02-27T14:46:46.133Z,926.81
2018-02-27T14:48:18.006Z,926.46
2018-02-27T14:49:49.836Z,926.36
2018-02-27T14:51:21.815Z,926.46
2018-02-27T14:52:53.436Z,926.32
2018-02-27T14:54:25.403Z,926.17
2018-02-27T14:55:57.088Z,926.27
2018-02-27T14:57:28.913Z,926.19
2018-02-27T14:59:00.784Z,926.39
2018-02-27T15:00:32.562Z,926.39
2018-02-27T15:02:04.386Z,926.43
2018-02-27T15:03:36.212Z,926.30
2018-02-27T15:05:08.035Z,926.35
2018-02-27T15:06:39.860Z,926.21
2018-02-27T15:09:43.508Z,926.17
2018-02-27T15:11:15.637Z,926.05
2018-02-27T15:12:47.258Z,926.34
2018-02-27T15:14:18.980Z,926.20
2018-02-27T15:15:50.804Z,926.12
2018-02-27T15:17:22.628Z,926.17
2018-02-27T15:18:54.452Z,926.22
2018-02-27T15:20:26.278Z,926.23
2018-02-27T15:21:58.100Z,926.13
2018-02-27T15:23:29.924Z,926.11
2018-02-27T15:25:01.760Z,925.99
2018-02-27T15:26:33.571Z,925.91
2018-02-27T15:28:05.394Z,925.96
2018-02-27T15:29:37.217Z,925.95
2018-02-27T15:31:09.241Z,925.92
2018-02-27T15:32:40.865Z,925.89
2018-02-27T15:34:12.693Z,925.99
2018-02-27T15:35:44.511Z,926.01
2018-02-27T15:37:16.333Z,925.93
2018-02-27T15:38:48.156Z,925.88
2018-02-27T15:40:19.978Z,925.90
2018-02-27T15:41:51.801Z,926.21
2018-02-27T15:43:23.625Z,926.40
2018-02-27T15:44:55.446Z,926.27
2018-02-27T15:46:27.276Z,926.18
2018-02-27T15:47:59.093Z,926.09
2018-02-27T15:49:31.017Z,926.16
2018-02-27T15:51:02.741Z,925.74
2018-02-27T15:52:34.659Z,925.58
2018-02-27T15:54:06.391Z,925.50
2018-02-27T15:55:38.218Z,925.47
2018-02-27T15:57:10.042Z,925.50
2018-02-27T15:58:41.868Z,925.57
2018-02-27T16:00:13.691Z,925.66
2018-02-27T16:01:45.528Z,925.66
2018-02-27T16:03:17.341Z,925.63
2018-02-27T16:04:49.167Z,925.74
2018-02-27T16:06:20.996Z,925.57
2018-02-27T16:07:52.924Z,925.49
2018-02-27T16:09:24.708Z,925.47
2018-02-27T16:10:56.468Z,925.53
2018-02-27T16:12:28.298Z,925.59
2018-02-27T16:14:00.121Z,925.53
2018-02-27T16:15:31.948Z,925.47
2018-02-27T16:17:03.773Z,925.14
2018-02-27T16:18:35.671Z,925.59
2018-02-27T16:20:07.424Z,925.55
2018-02-27T16:21:39.283Z,925.08
2018-02-27T16:23:11.078Z,925.05
2018-02-27T16:24:42.901Z,925.15
2018-02-27T16:26:14.827Z,925.15
2018-02-27T16:27:46.552Z,925.18
2018-02-27T16:29:18.455Z,925.20
2018-02-27T16:30:50.210Z,925.21
2018-02-27T16:32:22.030Z,925.23
2018-02-27T16:33:53.858Z,925.23
2018-02-27T16:35:25.683Z,925.19
2018-02-27T16:36:57.510Z,925.20
2018-02-27T16:38:29.336Z,925.25
2018-02-27T16:40:01.165Z,925.02
2018-02-27T16:41:32.990Z,924.96
2018-02-27T16:43:04.815Z,924.96
2018-02-27T16:44:36.743Z,924.97
2018-02-27T16:46:08.520Z,925.00
2018-02-27T16:47:40.374Z,924.77
2018-02-27T16:49:12.189Z,924.81
2018-02-27T16:50:43.954Z,924.84
2018-02-27T16:52:15.822Z,924.87
2018-02-27T16:53:47.616Z,924.48
2018-02-27T16:55:19.438Z,924.79
2018-02-27T16:56:51.290Z,924.65
2018-02-27T16:58:23.097Z,924.44
2018-02-27T16:59:54.939Z,924.29
2018-02-27T17:01:26.749Z,924.33
2018-02-27T17:02:58.776Z,924.38
2018-02-27T17:04:30.616Z,924.47
2018-02-27T17:06:02.320Z,924.21
2018-02-27T17:07:34.126Z,924.49
2018-02-27T17:09:05.889Z,924.28
2018-02-27T17:10:37.709Z,924.15
2018-02-27T17:12:09.536Z,924.49
2018-02-27T17:13:41.361Z,924.17
2018-02-27T17:15:13.187Z,924.05
2018-02-27T17:16:45.012Z,924.16
2018-02-27T17:18:16.839Z,923.94
2018-02-27T17:19:48.715Z,924.04
2018-02-27T17:21:20.656Z,924.04
2018-02-27T17:22:52.316Z,924.31
2018-02-27T17:24:24.222Z,924.26
2018-02-27T17:25:55.969Z,924.35
2018-02-27T17:27:27.804Z,924.43
2018-02-27T17:29:00.444Z,924.17
2018-02-27T17:30:31.549Z,924.13
2018-02-27T17:32:03.277Z,924.05
2018-02-27T17:33:35.202Z,923.95
2018-02-27T17:35:06.929Z,923.85
2018-02-27T17:36:39.363Z,923.76
2018-02-27T17:38:10.804Z,923.76
2018-02-27T17:39:42.558Z,923.70
2018-02-27T17:41:14.242Z,923.73
2018-02-27T17:42:46.122Z,923.79
2018-02-27T17:44:17.884Z,923.80
2018-02-27T17:45:49.716Z,923.84
2018-02-27T17:47:21.535Z,923.87
2018-02-27T17:48:53.433Z,923.96
2018-02-27T17:50:25.199Z,923.96
2018-02-27T17:51:57.599Z,923.78
2018-02-27T17:53:28.833Z,923.82
2018-02-27T17:55:00.659Z,923.77
2018-02-27T17:56:32.564Z,923.76
2018-02-27T17:58:04.437Z,923.69
2018-02-27T17:59:36.235Z,923.73
2018-02-27T18:01:07.958Z,923.70
2018-02-27T18:02:39.817Z,923.63
2018-02-27T18:04:11.770Z,923.64
2018-02-27T18:05:43.432Z,923.59
2018-02-27T18:07:15.291Z,923.57
2018-02-27T18:08:47.417Z,923.53
2018-02-27T18:10:18.973Z,923.45
2018-02-27T18:11:50.756Z,923.37
2018-02-27T18:13:22.557Z,923.40
2018-02-27T18:14:54.469Z,923.29
2018-02-27T18:16:26.356Z,923.30
2018-02-27T18:17:58.116Z,923.25
2018-02-27T18:19:29.911Z,923.20
2018-02-27T18:21:01.731Z,923.22
2018-02-27T18:22:34.487Z,923.26
2018-02-27T18:24:07.028Z,923.25
2018-02-27T18:25:37.184Z,923.26
2018-02-27T18:27:09.031Z,923.24
2018-02-27T18:28:40.805Z,923.26
2018-02-27T18:30:12.764Z,923.19
2018-02-27T18:31:44.449Z,923.18
2018-02-27T18:33:16.296Z,923.20
2018-02-27T18:34:48.349Z,923.28
2018-02-27T18:36:19.963Z,923.32
2018-02-27T18:37:51.808Z,923.28
2018-02-27T18:39:23.975Z,923.26
2018-02-27T18:40:55.432Z,923.20
2018-02-27T18:42:27.288Z,923.16
2018-02-27T18:43:59.432Z,923.21
2018-02-27T18:45:30.954Z,923.22
2018-02-27T18:47:03.234Z,923.22
2018-02-27T18:48:34.959Z,923.22
2018-02-27T18:50:06.581Z,923.28
2018-02-27T18:51:38.158Z,923.33
2018-02-27T18:53:10.242Z,923.46
2018-02-27T18:54:42.215Z,923.32
2018-02-27T18:56:13.696Z,923.29
2018-02-27T18:57:45.452Z,923.29
2018-02-27T18:59:17.426Z,923.33
2018-02-27T19:00:49.199Z,923.41
2018-02-27T19:02:20.967Z,923.51
2018-02-27T19:03:52.745Z,923.55
2018-02-27T19:05:24.570Z,923.60
2018-02-27T19:06:56.426Z,923.57
2018-02-27T19:08:28.219Z,923.52